Ladelle, Arkansas
Current Conditions -  °F | °C
As of 10:05 AM on Thursday 27 Nov 2014 (Local Time) from KLLQ Reporting Station
Scattered Clouds Scattered Clouds  
Wind Chill: 38°   Ceiling: Unl
Heat Index: 42°   Visibility: 10mi
Dew Point: 27°   Wind: 7mph
Humidity: 55%   Direction: 350°N
Pressure: 30.55"   Gusts: NA
Location:  33.5819°N, 91.7907°W
Report Text: KLLQ 271605Z AUTO 35006KT 10SM SCT030 06/M03 A3055 RMK AO2 T00561028
Loading
Personal Weather Stations






























Interactive Weather Map New forecast layout! Learn more

10-Day Weather Forecast

Advertisements
Track Severe Weather on mobile